Time;durP1;ratioP1;P1;durP2;ratioP2;P2;SDS_P1;SDS_P2;PMS_P1;PMS_P2;Temp;Humidity;BMP_temperature;BMP_pressure;BME280_temperature;BME280_humidity;BME280_pressure;Samples;Min_cycle;Max_cycle;Signal;HPM_P1;HPM_P2
2022/06/24 00:00:05;;;;;;;2.08;0.77;;;;;;;27.86;49.99;99141.63;5101923;28;20072;-88
2022/06/24 00:02:30;;;;;;;2.50;1.02;;;;;;;27.85;50.02;99137.22;5100409;28;20103;-86
2022/06/24 00:04:57;;;;;;;2.83;1.00;;;;;;;27.85;50.14;99136.41;5096755;28;20024;-87
2022/06/24 00:07:23;;;;;;;2.70;1.00;;;;;;;27.85;50.11;99137.22;5095827;28;20024;-85
2022/06/24 00:09:49;;;;;;;1.80;0.90;;;;;;;27.84;49.98;99140.91;5094759;28;20016;-86
2022/06/24 00:12:17;;;;;;;1.52;1.00;;;;;;;27.83;50.04;99139.22;5094538;28;20032;-85
2022/06/24 00:14:48;;;;;;;3.10;1.30;;;;;;;27.82;50.15;99124.13;5095914;28;20028;-85
2022/06/24 00:17:14;;;;;;;2.10;1.00;;;;;;;27.82;50.23;99125.97;5094718;28;20039;-85
2022/06/24 00:19:59;;;;;;;3.17;1.30;;;;;;;27.83;50.13;99128.50;5094653;28;20559;-86
2022/06/24 00:22:27;;;;;;;1.92;1.05;;;;;;;27.79;49.98;99127.09;5099836;28;20016;-88
2022/06/24 00:25:10;;;;;;;1.38;1.10;;;;;;;27.79;50.52;99132.47;5103239;28;20122;-87
2022/06/24 00:27:36;;;;;;;3.30;1.20;;;;;;;27.78;50.19;99128.09;5108190;28;20024;-87
2022/06/24 00:30:10;;;;;;;2.40;1.08;;;;;;;27.78;50.50;99129.94;5110866;28;20039;-88
2022/06/24 00:32:36;;;;;;;1.77;0.85;;;;;;;27.77;50.15;99130.91;5113087;28;20097;-87
2022/06/24 00:35:16;;;;;;;1.65;0.98;;;;;;;27.76;50.56;99135.44;5102373;28;20020;-86
2022/06/24 00:37:43;;;;;;;2.13;1.20;;;;;;;27.76;50.21;99137.28;5103566;28;20115;-88
2022/06/24 00:40:12;;;;;;;2.80;1.00;;;;;;;27.75;50.38;99141.81;5106130;28;20028;-87
2022/06/24 00:42:44;;;;;;;3.30;1.20;;;;;;;27.74;50.15;99145.44;5103457;28;20020;-88
2022/06/24 00:45:48;;;;;;;1.73;0.95;;;;;;;27.74;50.28;99150.81;5106090;28;20056;-87
2022/06/24 00:48:15;;;;;;;3.00;1.20;;;;;;;27.74;50.24;99148.13;5100111;28;20031;-86
2022/06/24 00:50:46;;;;;;;2.47;1.20;;;;;;;27.71;50.48;99151.13;5100060;28;20024;-86
2022/06/24 00:53:13;;;;;;;2.85;1.38;;;;;;;27.71;50.16;99148.44;5102826;28;20024;-87
2022/06/24 00:55:41;;;;;;;2.67;1.00;;;;;;;27.71;50.71;99135.03;5100026;28;20024;-86
2022/06/24 00:58:13;;;;;;;2.15;1.02;;;;;;;27.70;50.65;99144.06;5098510;28;20020;-86
2022/06/24 01:00:42;;;;;;;1.95;1.13;;;;;;;27.71;50.45;99135.03;5099551;28;20101;-86
2022/06/24 01:03:08;;;;;;;1.50;0.95;;;;;;;27.68;50.30;99136.19;5098981;28;20093;-86
2022/06/24 01:05:34;;;;;;;1.67;1.05;;;;;;;27.68;50.46;99117.41;5099406;28;20113;-85
2022/06/24 01:08:10;;;;;;;2.67;1.00;;;;;;;27.66;50.44;99099.78;5098391;28;20024;-87
2022/06/24 01:10:36;;;;;;;4.00;1.00;;;;;;;27.65;50.32;99093.56;5099372;28;20024;-85
2022/06/24 01:13:02;;;;;;;2.75;0.90;;;;;;;27.64;50.68;99091.06;5099193;28;20024;-87
2022/06/24 01:15:28;;;;;;;3.38;1.27;;;;;;;27.63;50.71;99074.13;5098250;28;20035;-87
2022/06/24 01:17:54;;;;;;;1.73;1.25;;;;;;;27.65;50.73;99071.31;5100133;28;20098;-87
2022/06/24 01:20:20;;;;;;;1.48;0.90;;;;;;;27.64;50.43;99064.25;5098259;28;20024;-87
2022/06/24 01:22:45;;;;;;;3.17;0.85;;;;;;;27.63;50.56;99075.94;5097873;28;20019;-86
2022/06/24 01:25:11;;;;;;;2.08;1.05;;;;;;;27.63;50.78;99084.00;5098367;28;20537;-85
2022/06/24 01:27:38;;;;;;;2.25;0.93;;;;;;;27.61;50.41;99084.97;5097382;28;20099;-86
2022/06/24 01:30:05;;;;;;;1.75;1.08;;;;;;;27.60;50.49;99093.19;5098149;28;20042;-84
2022/06/24 01:32:30;;;;;;;2.08;0.90;;;;;;;27.59;50.58;99088.78;5097020;28;20053;-87
2022/06/24 01:34:56;;;;;;;1.73;1.15;;;;;;;27.59;50.48;99084.28;5100914;28;20016;-86
2022/06/24 01:37:23;;;;;;;2.80;1.08;;;;;;;27.57;50.61;99070.19;5119012;28;20053;-89
2022/06/24 01:39:49;;;;;;;1.67;0.85;;;;;;;27.55;50.50;99053.38;5103402;28;20024;-87
2022/06/24 01:42:14;;;;;;;1.63;0.85;;;;;;;27.55;50.50;99028.44;5101304;28;20034;-86
2022/06/24 01:44:40;;;;;;;2.63;1.10;;;;;;;27.54;50.69;99022.22;5097378;28;20077;-87
2022/06/24 01:47:06;;;;;;;2.42;0.98;;;;;;;27.54;50.50;99019.53;5097461;28;20364;-86
2022/06/24 01:49:31;;;;;;;2.40;1.00;;;;;;;27.55;50.79;99031.13;5097141;28;20051;-86
2022/06/24 01:52:01;;;;;;;2.15;1.33;;;;;;;27.54;50.51;99032.94;5097330;28;20028;-86
2022/06/24 01:54:26;;;;;;;2.50;1.20;;;;;;;27.53;50.33;99025.03;5096412;28;20020;-85
2022/06/24 01:56:53;;;;;;;1.80;0.82;;;;;;;27.51;50.83;99021.69;5096422;28;20107;-88
2022/06/24 01:59:18;;;;;;;1.67;1.00;;;;;;;27.50;50.88;99015.47;5096395;28;20032;-86
2022/06/24 02:01:44;;;;;;;2.97;0.90;;;;;;;27.48;50.76;99015.63;5098481;28;20505;-87
2022/06/24 02:04:10;;;;;;;1.88;1.20;;;;;;;27.49;50.90;99016.47;5099113;28;20023;-87
2022/06/24 02:06:36;;;;;;;2.50;1.00;;;;;;;27.47;50.76;99016.59;5099097;28;20335;-86
2022/06/24 02:09:02;;;;;;;2.17;1.17;;;;;;;27.47;50.71;99015.78;5102195;28;20023;-88
2022/06/24 02:14:13;;;;;;;1.55;0.90;;;;;;;27.44;50.77;99024.09;5100963;28;20401;-88
2022/06/24 02:16:39;;;;;;;1.88;1.10;;;;;;;27.45;50.71;99041.88;5097583;28;20031;-87
2022/06/24 02:19:05;;;;;;;2.28;1.20;;;;;;;27.43;50.63;99051.88;5096821;28;20045;-87
2022/06/24 02:21:31;;;;;;;1.90;1.20;;;;;;;27.41;51.02;99075.31;5098022;28;20082;-86
2022/06/24 02:23:56;;;;;;;2.45;1.13;;;;;;;27.42;50.93;99088.56;5097157;28;20028;-86
2022/06/24 02:26:23;;;;;;;2.17;1.10;;;;;;;27.41;50.57;99102.09;5097433;28;20073;-86
2022/06/24 02:28:49;;;;;;;1.88;1.00;;;;;;;27.41;50.68;99118.16;5097352;28;20028;-86
2022/06/24 02:31:15;;;;;;;2.55;1.02;;;;;;;27.41;50.92;99118.16;5097212;28;20100;-87
2022/06/24 02:33:40;;;;;;;3.90;1.30;;;;;;;27.40;51.00;99116.47;5097686;28;20047;-87
2022/06/24 02:36:06;;;;;;;2.35;0.90;;;;;;;27.41;50.52;99118.16;5098528;28;20035;-87
2022/06/24 02:38:34;;;;;;;2.63;0.90;;;;;;;27.39;50.82;99099.56;5114958;28;20024;-87
2022/06/24 02:41:00;;;;;;;3.80;1.55;;;;;;;27.38;50.59;99094.31;5096647;28;20020;-86
2022/06/24 02:43:29;;;;;;;2.30;1.13;;;;;;;27.38;50.83;99080.94;5096769;28;20472;-87
2022/06/24 02:46:02;;;;;;;1.88;0.90;;;;;;;27.37;50.53;99063.19;5099480;28;20484;-87
2022/06/24 02:48:29;;;;;;;1.70;0.85;;;;;;;27.34;50.63;99058.94;5100389;28;20040;-88
2022/06/24 02:50:57;;;;;;;1.75;0.95;;;;;;;27.32;51.02;99061.78;5103191;28;20331;-87
2022/06/24 02:53:24;;;;;;;2.85;1.00;;;;;;;27.32;50.85;99051.06;5099588;28;20027;-87
2022/06/24 02:55:52;;;;;;;3.40;1.20;;;;;;;27.29;50.58;99046.00;5096904;28;20024;-88
2022/06/24 02:58:18;;;;;;;3.05;1.20;;;;;;;27.29;50.66;99046.00;5098329;28;20512;-89
2022/06/24 03:00:44;;;;;;;1.75;1.10;;;;;;;27.28;50.75;99047.00;5099273;28;20048;-88
2022/06/24 03:03:15;;;;;;;2.03;0.90;;;;;;;27.26;51.07;99035.56;5098883;28;20028;-88
2022/06/24 03:05:42;;;;;;;2.25;1.10;;;;;;;27.26;51.09;99035.56;5100309;28;20028;-90
2022/06/24 03:08:09;;;;;;;2.22;1.10;;;;;;;27.26;50.92;99040.09;5101132;28;20027;-87
2022/06/24 03:10:35;;;;;;;1.95;0.95;;;;;;;27.25;50.68;99041.91;5097664;28;20024;-87
2022/06/24 03:13:01;;;;;;;1.85;0.98;;;;;;;27.22;50.88;99031.50;5114750;28;20031;-87
2022/06/24 03:15:27;;;;;;;2.20;0.80;;;;;;;27.24;50.70;99036.69;5100322;28;20028;-87
2022/06/24 03:17:52;;;;;;;1.58;0.90;;;;;;;27.22;50.75;99036.88;5100076;28;20454;-88
2022/06/24 03:20:18;;;;;;;2.63;1.23;;;;;;;27.19;51.07;99035.31;5098521;28;20033;-87
2022/06/24 03:22:44;;;;;;;2.03;1.20;;;;;;;27.19;50.90;99039.81;5097367;28;20034;-88
2022/06/24 03:25:09;;;;;;;3.60;1.23;;;;;;;27.19;50.91;99042.50;5097595;28;20028;-87
2022/06/24 03:27:36;;;;;;;2.55;1.00;;;;;;;27.18;50.85;99046.16;5095976;28;20031;-86
2022/06/24 03:30:04;;;;;;;3.13;1.13;;;;;;;27.19;51.04;99058.56;5095702;28;20366;-86
2022/06/24 03:32:29;;;;;;;2.10;1.10;;;;;;;27.19;50.71;99066.59;5096256;28;20023;-87
2022/06/24 03:34:55;;;;;;;2.17;1.02;;;;;;;27.17;50.80;99057.88;5097078;28;20039;-87
2022/06/24 03:37:20;;;;;;;3.55;1.48;;;;;;;27.16;51.15;99050.84;5096686;28;20043;-86
2022/06/24 03:39:46;;;;;;;1.55;0.90;;;;;;;27.16;50.89;99051.66;5095426;28;20122;-85
2022/06/24 03:42:11;;;;;;;2.20;1.05;;;;;;;27.15;51.04;99049.13;5094551;28;20115;-86
2022/06/24 03:44:37;;;;;;;2.53;1.05;;;;;;;27.14;50.90;99047.44;5094482;28;20027;-85
2022/06/24 03:47:03;;;;;;;1.83;0.82;;;;;;;27.13;50.84;99046.63;5095772;28;20056;-86
2022/06/24 03:49:29;;;;;;;2.38;1.05;;;;;;;27.12;51.07;99049.44;5095893;28;20111;-87
2022/06/24 03:51:54;;;;;;;2.35;0.82;;;;;;;27.12;50.80;99054.78;5097122;28;20516;-87
2022/06/24 03:54:20;;;;;;;2.03;0.77;;;;;;;27.11;50.89;99072.66;5097861;28;20023;-87
2022/06/24 03:56:46;;;;;;;2.92;1.10;;;;;;;27.09;50.84;99061.28;5098846;28;20118;-86
2022/06/24 03:59:11;;;;;;;2.28;0.85;;;;;;;27.10;50.94;99075.50;5101476;28;20024;-86
2022/06/24 04:01:37;;;;;;;2.67;0.88;;;;;;;27.07;50.81;99080.16;5101570;28;20032;-86
2022/06/24 04:04:03;;;;;;;3.25;1.00;;;;;;;27.06;50.85;99072.25;5095703;28;20036;-85
2022/06/24 04:06:28;;;;;;;1.77;0.70;;;;;;;27.05;50.93;99063.41;5094219;28;20047;-85
2022/06/24 04:08:55;;;;;;;2.10;0.80;;;;;;;27.05;51.04;99068.75;5094620;28;20028;-85
2022/06/24 04:11:21;;;;;;;2.33;0.93;;;;;;;27.04;50.87;99060.84;5094504;28;20058;-87
2022/06/24 04:13:48;;;;;;;2.20;1.10;;;;;;;27.02;50.73;99061.00;5094610;28;20065;-86
2022/06/24 04:16:13;;;;;;;3.35;1.25;;;;;;;27.02;50.48;99060.16;5094297;28;20461;-87
2022/06/24 04:18:39;;;;;;;2.28;0.80;;;;;;;26.99;50.87;99061.28;5095693;28;20038;-86
2022/06/24 04:21:12;;;;;;;1.58;0.80;;;;;;;26.98;50.78;99054.25;5094901;28;20420;-86
2022/06/24 04:23:38;;;;;;;3.55;1.08;;;;;;;26.99;50.60;99065.78;5094355;28;20024;-84
2022/06/24 04:26:03;;;;;;;1.42;0.73;;;;;;;26.98;50.88;99064.97;5096450;28;20030;-87
2022/06/24 04:28:29;;;;;;;1.67;0.80;;;;;;;26.99;50.34;99066.66;5096667;28;20055;-87
2022/06/24 04:30:54;;;;;;;3.92;0.90;;;;;;;26.97;50.79;99060.56;5096136;28;20117;-86
2022/06/24 04:33:29;;;;;;;2.85;0.82;;;;;;;26.94;50.78;99069.72;5095335;28;20059;-86
2022/06/24 04:35:57;;;;;;;1.80;0.70;;;;;;;26.94;50.72;99071.56;5094525;28;20032;-87
2022/06/24 04:38:48;;;;;;;1.15;0.68;;;;;;;26.94;50.85;99063.53;5094200;28;20457;-86
2022/06/24 04:41:35;;;;;;;2.05;0.70;;;;;;;26.94;50.80;99052.84;5097594;28;20028;-88
2022/06/24 06:55:33;;;;;;;3.08;0.90;;;;;;;26.63;50.61;99202.81;5086705;28;20093;-90
2022/06/24 06:58:36;;;;;;;4.80;1.10;;;;;;;26.61;50.47;99186.91;5144541;27;20103;-89
2022/06/24 07:01:39;;;;;;;2.08;0.73;;;;;;;26.61;50.36;99180.69;5109955;28;20019;-89
2022/06/24 07:04:45;;;;;;;7.38;1.23;;;;;;;26.60;50.64;99168.28;5110637;28;20074;-89
2022/06/24 07:07:18;;;;;;;3.83;1.20;;;;;;;26.59;50.42;99166.59;5111333;28;20099;-90
2022/06/24 07:09:51;;;;;;;3.22;0.70;;;;;;;26.57;50.37;99184.63;5145897;27;20028;-89
2022/06/24 07:16:19;;;;;;;3.85;0.80;;;;;;;26.58;50.31;99215.75;5113684;28;20062;-89
2022/06/24 07:18:44;;;;;;;3.65;1.00;;;;;;;26.57;50.51;99212.22;5118557;28;20043;-89
2022/06/24 07:21:13;;;;;;;3.72;1.00;;;;;;;26.57;50.30;99212.22;5112117;28;20020;-88
2022/06/24 07:23:39;;;;;;;3.97;0.80;;;;;;;26.57;50.52;99216.75;5111931;28;20031;-89
2022/06/24 07:26:05;;;;;;;1.55;0.77;;;;;;;26.59;50.17;99230.81;5112142;28;20043;-89
2022/06/24 07:28:33;;;;;;;3.17;1.05;;;;;;;26.57;50.43;99227.44;5111354;28;20086;-89
2022/06/24 07:30:58;;;;;;;3.78;0.95;;;;;;;26.56;50.22;99228.41;5146386;27;20050;-89
2022/06/24 07:33:24;;;;;;;3.45;0.93;;;;;;;26.56;50.31;99231.94;5146690;27;20035;-90
2022/06/24 07:35:50;;;;;;;2.92;0.77;;;;;;;26.54;50.28;99240.09;5112046;28;20042;-89
2022/06/24 07:38:17;;;;;;;1.80;0.52;;;;;;;26.55;50.58;99235.59;5111182;28;20019;-89
2022/06/24 07:40:43;;;;;;;2.38;0.60;;;;;;;26.55;50.21;99240.97;5111446;28;20035;-89
2022/06/24 07:43:09;;;;;;;4.85;0.75;;;;;;;26.54;50.07;99234.75;5112759;28;20032;-89
2022/06/24 07:45:39;;;;;;;1.27;0.60;;;;;;;26.53;50.29;99232.19;5149050;27;20023;-91
2022/06/24 07:48:05;;;;;;;2.90;0.82;;;;;;;26.54;49.94;99232.06;5116209;28;20038;-92
2022/06/24 07:50:30;;;;;;;2.70;0.70;;;;;;;26.53;49.79;99233.06;5116936;28;20027;-90
2022/06/24 07:52:56;;;;;;;2.38;0.50;;;;;;;26.52;50.16;99236.72;5115175;28;20020;-89
2022/06/24 07:58:10;;;;;;;1.88;0.60;;;;;;;26.53;49.95;99241.09;5109488;28;20059;-90
2022/06/24 08:00:35;;;;;;;2.38;0.60;;;;;;;26.51;50.15;99227.00;5109818;28;20111;-89
2022/06/24 08:03:01;;;;;;;1.92;0.60;;;;;;;26.51;49.84;99240.38;5127837;28;20385;-90
2022/06/24 08:05:27;;;;;;;1.98;0.60;;;;;;;26.50;49.92;99233.34;5112320;28;20091;-90
2022/06/24 08:07:53;;;;;;;1.48;0.50;;;;;;;26.52;50.00;99251.91;5111861;28;20024;-89
2022/06/24 08:10:19;;;;;;;1.10;0.68;;;;;;;26.52;49.70;99252.78;5145465;28;20028;-89
2022/06/24 08:12:46;;;;;;;1.75;0.60;;;;;;;26.52;49.95;99236.72;5143368;28;20024;-89
2022/06/24 08:15:14;;;;;;;1.02;0.52;;;;;;;26.52;49.96;99239.41;5144826;28;20032;-89
2022/06/24 08:17:44;;;;;;;1.00;0.43;;;;;;;26.52;49.71;99236.72;5092484;28;20032;-90
2022/06/24 08:20:11;;;;;;;2.50;0.60;;;;;;;26.52;49.92;99228.69;5143392;28;20028;-90
2022/06/24 08:22:37;;;;;;;1.73;0.65;;;;;;;26.53;49.59;99227.72;5109794;28;20031;-89
2022/06/24 08:25:05;;;;;;;1.15;0.50;;;;;;;26.53;49.93;99229.53;5111072;28;20024;-90
2022/06/24 08:27:31;;;;;;;1.10;0.45;;;;;;;26.52;49.92;99234.03;5109427;28;20119;-89
2022/06/24 08:29:57;;;;;;;0.90;0.40;;;;;;;26.52;49.80;99236.72;5110752;28;20047;-90
2022/06/24 08:32:22;;;;;;;2.45;0.70;;;;;;;26.52;49.64;99236.72;5127985;28;20032;-89
2022/06/24 08:34:49;;;;;;;1.73;0.60;;;;;;;26.52;49.80;99225.16;5110312;28;20028;-89
2022/06/24 08:37:14;;;;;;;3.20;0.60;;;;;;;26.51;49.58;99224.34;5125912;28;20520;-91
2022/06/24 08:39:40;;;;;;;1.13;0.70;;;;;;;26.52;49.74;99239.41;5110609;28;20028;-90
2022/06/24 08:42:11;;;;;;;1.65;0.45;;;;;;;26.53;49.48;99230.38;5111132;28;20020;-90
2022/06/24 08:44:38;;;;;;;1.52;0.50;;;;;;;26.51;49.61;99229.69;5117086;28;20028;-89
2022/06/24 08:47:04;;;;;;;2.42;0.57;;;;;;;26.51;49.58;99229.69;5114546;28;20357;-90
2022/06/24 08:49:32;;;;;;;2.42;0.68;;;;;;;26.51;49.59;99218.97;5114511;28;20024;-89
2022/06/24 08:52:01;;;;;;;1.17;0.50;;;;;;;26.52;49.35;99215.31;5131269;28;20035;-90
2022/06/24 08:54:32;;;;;;;1.98;0.70;;;;;;;26.56;49.33;99217.69;5113566;28;20047;-92
2022/06/24 14:33:24;;;;;;;0.75;0.55;;;;;;;27.73;47.09;99071.41;5696824;22;20051;-90
2022/06/24 14:41:33;;;;;;;2.08;0.70;;;;;;;27.74;46.89;99057.84;4975042;28;20185;-88
2022/06/24 14:44:25;;;;;;;1.52;0.88;;;;;;;27.77;47.03;99055.84;5545190;23;20054;-90
2022/06/24 14:47:36;;;;;;;1.23;0.77;;;;;;;27.76;47.11;99052.34;4968914;28;20058;-86
2022/06/24 14:53:25;;;;;;;0.63;0.50;;;;;;;27.76;47.21;99057.72;4994894;28;20073;-92
2022/06/24 14:56:09;;;;;;;1.05;0.70;;;;;;;27.78;47.32;99066.44;4980038;28;20078;-88
2022/06/24 14:58:35;;;;;;;1.40;0.60;;;;;;;27.78;47.06;99061.06;4972553;28;20035;-91
2022/06/24 15:01:38;;;;;;;1.02;0.75;;;;;;;27.79;47.41;99062.75;4974920;28;20031;-87
2022/06/24 15:04:03;;;;;;;0.88;0.60;;;;;;;27.81;47.27;99060.81;4969544;28;20480;-86
2022/06/24 15:06:41;;;;;;;1.13;0.70;;;;;;;27.80;47.12;99053.72;4970439;28;20049;-90
2022/06/24 15:09:46;;;;;;;1.52;0.70;;;;;;;27.82;47.08;99057.13;4974055;28;20089;-88
2022/06/24 15:12:18;;;;;;;1.80;1.00;;;;;;;27.83;47.34;99053.44;4978778;28;20022;-88
2022/06/24 15:14:45;;;;;;;0.85;0.55;;;;;;;27.83;47.17;99048.09;4976228;28;20031;-87
2022/06/24 15:17:15;;;;;;;1.30;0.50;;;;;;;27.84;47.09;99055.13;5022332;23;20142;-87
2022/06/24 15:19:45;;;;;;;1.30;0.73;;;;;;;27.85;47.02;99047.94;4949167;29;20023;-87
2022/06/24 15:22:23;;;;;;;1.52;0.93;;;;;;;27.85;47.21;99040.72;4945600;29;20386;-85
2022/06/24 15:25:16;;;;;;;1.52;0.50;;;;;;;27.86;47.38;99039.75;4924937;29;20118;-83
2022/06/24 15:27:41;;;;;;;1.65;0.70;;;;;;;27.85;47.10;99040.72;4923449;29;20023;-85
2022/06/24 15:30:38;;;;;;;1.55;0.70;;;;;;;27.86;47.43;99037.06;4942712;29;20035;-89
2022/06/24 15:33:10;;;;;;;;;;;;;;;27.88;47.36;99044.94;4944302;28;20011;-86
2022/06/24 15:35:54;;;;;;;1.13;0.52;;;;;;;27.88;47.11;99040.44;4927330;29;20025;-86
2022/06/24 15:39:10;;;;;;;;;;;;;;;;;;;;;
2022/06/24 15:41:36;;;;;;;0.73;0.50;;;;;;;27.90;47.24;99036.75;4943158;29;20024;-85
2022/06/24 15:44:01;;;;;;;1.02;0.65;;;;;;;27.88;47.17;99029.72;4928288;29;20082;-87
2022/06/24 15:46:27;;;;;;;1.27;0.90;;;;;;;27.90;46.99;99036.75;4945099;29;20032;-88
2022/06/24 15:52:15;;;;;;;1.10;0.57;;;;;;;27.90;47.11;99032.25;4952047;29;20122;-88
2022/06/24 15:54:47;;;;;;;1.20;0.75;;;;;;;27.90;47.05;99037.63;4926701;29;20063;-87
2022/06/24 15:57:25;;;;;;;0.95;0.70;;;;;;;27.91;47.06;99033.06;4929312;29;20126;-85
2022/06/24 16:00:13;;;;;;;1.45;0.80;;;;;;;27.91;46.99;99039.28;4926057;29;20027;-85
2022/06/24 16:02:40;;;;;;;1.60;0.77;;;;;;;27.91;47.14;99035.75;4924080;29;20110;-87
2022/06/24 16:05:14;;;;;;;1.23;0.80;;;;;;;27.92;47.25;99034.75;4941321;29;20039;-88
2022/06/24 16:07:40;;;;;;;0.85;0.70;;;;;;;27.92;47.11;99030.25;4934648;29;20110;-88
2022/06/24 16:10:07;;;;;;;1.63;0.90;;;;;;;27.92;47.06;99034.75;4924244;29;20062;-88
2022/06/24 16:12:33;;;;;;;1.67;0.73;;;;;;;27.92;47.15;99032.09;4958165;29;20492;-87
2022/06/24 16:15:06;;;;;;;0.88;0.60;;;;;;;27.93;47.00;99037.28;4913671;29;20024;-89
2022/06/24 16:17:32;;;;;;;0.73;0.52;;;;;;;27.93;47.06;99023.06;4927671;29;20060;-86
2022/06/24 16:19:58;;;;;;;1.50;0.60;;;;;;;27.94;47.40;99027.44;4944553;29;20080;-88
2022/06/24 16:22:25;;;;;;;0.90;0.50;;;;;;;27.93;47.18;99026.56;4943189;29;20028;-86
2022/06/24 16:30:19;;;;;;;1.35;0.90;;;;;;;27.95;47.23;99027.28;4946566;29;20034;-86
2022/06/24 16:32:46;;;;;;;0.80;0.47;;;;;;;27.96;47.01;99037.00;4934883;29;20036;-88
2022/06/24 16:35:12;;;;;;;1.42;0.60;;;;;;;27.95;47.33;99029.97;4922275;29;20103;-88
2022/06/24 16:37:40;;;;;;;1.30;0.80;;;;;;;27.95;47.28;99035.34;4935627;29;20070;-86
2022/06/24 16:40:07;;;;;;;1.50;0.98;;;;;;;27.96;47.07;99026.28;4936420;29;20397;-86
2022/06/24 16:42:33;;;;;;;1.13;0.70;;;;;;;27.95;46.99;99034.47;4937407;29;20012;-89
2022/06/24 16:44:59;;;;;;;1.15;0.77;;;;;;;27.95;47.32;99024.59;4936806;29;20146;-88
2022/06/24 16:47:26;;;;;;;0.77;0.55;;;;;;;27.96;47.26;99025.44;4928939;29;20071;-86
2022/06/24 16:49:52;;;;;;;1.17;0.60;;;;;;;27.96;47.16;99036.16;4929510;29;20536;-84
2022/06/24 16:52:17;;;;;;;0.80;0.63;;;;;;;27.95;47.27;99023.75;4926084;29;20047;-86
2022/06/24 16:54:43;;;;;;;0.93;0.50;;;;;;;27.95;47.08;99029.13;4923595;29;20389;-85
2022/06/24 16:57:09;;;;;;;1.10;0.57;;;;;;;27.95;47.04;99024.59;4939257;29;20042;-85
2022/06/24 16:59:34;;;;;;;1.48;0.90;;;;;;;27.97;47.25;99027.13;4922200;29;20470;-87
2022/06/24 17:02:00;;;;;;;2.47;0.95;;;;;;;27.96;47.09;99022.75;4923782;29;20379;-84
2022/06/24 17:04:26;;;;;;;1.27;0.75;;;;;;;27.95;47.10;99019.25;4932133;29;20031;-87
2022/06/24 17:06:52;;;;;;;1.33;0.80;;;;;;;27.96;47.15;99022.75;4941284;29;20035;-87
2022/06/24 17:09:19;;;;;;;0.80;0.60;;;;;;;27.96;47.22;99017.38;4934492;29;20072;-86
2022/06/24 17:11:45;;;;;;;1.00;0.70;;;;;;;27.95;47.28;99024.59;4929832;29;20039;-86
2022/06/24 17:14:11;;;;;;;0.88;0.60;;;;;;;27.96;46.94;99026.28;4946829;29;20061;-87
2022/06/24 17:16:37;;;;;;;0.57;0.50;;;;;;;27.97;46.86;99033.34;4930066;29;20382;-87
2022/06/24 17:19:03;;;;;;;1.25;0.60;;;;;;;27.97;47.00;99032.47;4934221;29;20028;-86
2022/06/24 17:21:29;;;;;;;1.40;0.65;;;;;;;27.97;46.96;99027.97;4936145;29;20035;-88
2022/06/24 17:23:56;;;;;;;0.90;0.55;;;;;;;27.98;46.79;99024.28;4930239;29;20036;-87
2022/06/24 17:26:22;;;;;;;0.80;0.70;;;;;;;27.98;46.97;99028.78;4932602;29;20027;-87
2022/06/24 17:28:47;;;;;;;1.00;0.80;;;;;;;27.99;46.95;99033.19;4941590;29;20042;-84
2022/06/24 17:31:13;;;;;;;1.00;0.70;;;;;;;27.98;47.00;99028.78;4923724;29;20031;-85
2022/06/24 17:33:38;;;;;;;0.93;0.60;;;;;;;27.97;46.89;99033.34;4925425;29;20034;-88
2022/06/24 17:36:04;;;;;;;1.83;0.90;;;;;;;27.98;46.89;99035.00;4946878;29;20095;-86
2022/06/24 17:38:30;;;;;;;1.95;0.88;;;;;;;27.99;46.84;99038.56;4928296;29;20027;-86
2022/06/24 17:40:56;;;;;;;0.90;0.60;;;;;;;27.99;46.76;99041.22;4921423;29;20039;-86
2022/06/24 17:43:22;;;;;;;2.42;0.70;;;;;;;27.98;46.94;99039.53;4926346;29;20095;-84
2022/06/24 17:45:48;;;;;;;1.58;1.00;;;;;;;27.98;47.12;99034.16;4930865;29;20036;-86
2022/06/24 17:48:13;;;;;;;1.33;0.90;;;;;;;27.97;47.02;99048.56;4929531;29;20020;-88
2022/06/24 17:50:39;;;;;;;0.80;0.60;;;;;;;27.96;46.91;99042.38;4935290;29;20381;-85
2022/06/24 17:53:04;;;;;;;1.10;0.80;;;;;;;27.98;46.89;99039.53;4945067;29;20031;-82
2022/06/24 17:55:30;;;;;;;1.10;0.75;;;;;;;27.96;46.73;99042.38;4940577;29;20035;-84
2022/06/24 17:57:56;;;;;;;1.30;0.80;;;;;;;27.96;47.08;99042.38;4925187;29;20055;-86
2022/06/24 18:00:21;;;;;;;1.65;0.90;;;;;;;27.94;46.28;99048.88;4926392;29;20027;-88
2022/06/24 18:02:47;;;;;;;2.97;1.15;;;;;;;27.94;44.90;99049.72;4942712;29;20038;-85
2022/06/24 18:05:13;;;;;;;1.80;1.02;;;;;;;27.91;44.36;99046.47;4925397;29;20027;-86
2022/06/24 18:07:42;;;;;;;3.50;1.35;;;;;;;27.89;44.33;99046.63;4941580;29;20027;-86
2022/06/24 18:10:08;;;;;;;3.50;1.38;;;;;;;27.88;42.98;99056.53;4925542;29;20027;-87
2022/06/24 18:12:33;;;;;;;3.47;1.80;;;;;;;27.86;43.41;99055.84;4917159;29;20028;-86
2022/06/24 18:15:00;;;;;;;5.70;1.50;;;;;;;27.85;43.18;99051.44;4940296;29;20393;-86
2022/06/24 18:17:26;;;;;;;3.67;1.55;;;;;;;27.84;43.06;99054.28;4937530;29;20058;-88
2022/06/24 18:19:51;;;;;;;8.13;1.80;;;;;;;27.83;43.08;99052.59;4934622;29;20039;-85
2022/06/24 18:22:17;;;;;;;3.28;1.48;;;;;;;27.83;43.04;99058.81;4919503;29;20032;-86
2022/06/24 18:24:43;;;;;;;3.67;1.80;;;;;;;27.82;43.25;99054.44;4928442;29;20024;-90
2022/06/24 18:27:08;;;;;;;5.25;1.50;;;;;;;27.81;43.20;99055.44;4933281;29;20028;-85
2022/06/24 18:29:34;;;;;;;39.55;7.00;;;;;;;27.81;43.27;99058.13;4928201;29;20094;-87
2022/06/24 18:32:24;;;;;;;28.90;5.03;;;;;;;27.80;43.13;99056.41;4928879;29;20034;-88
2022/06/24 18:40:12;;;;;;;22.67;4.70;;;;;;;27.79;42.81;99061.94;5595398;23;20062;-90
2022/06/24 18:52:47;;;;;;;10.52;2.00;;;;;;;27.75;43.05;99061.41;5239612;23;20268;-89
2022/06/24 18:55:14;;;;;;;9.57;2.05;;;;;;;27.74;43.05;99059.69;5512685;23;20062;-90
2022/06/24 19:00:16;;;;;;;7.80;1.75;;;;;;;27.74;43.25;99070.41;5260453;23;20043;-93
2022/06/24 19:02:58;;;;;;;6.70;1.98;;;;;;;27.73;43.11;99063.34;5592264;23;20058;-90
2022/06/24 19:05:24;;;;;;;7.75;2.72;;;;;;;27.72;43.33;99067.91;4960152;29;20489;-91
2022/06/24 19:07:50;;;;;;;16.52;4.72;;;;;;;27.72;43.00;99073.25;4961643;28;20037;-91
2022/06/24 19:10:15;;;;;;;18.45;5.45;;;;;;;27.70;43.07;99063.66;4945094;29;20042;-90
2022/06/24 19:12:46;;;;;;;18.42;5.80;;;;;;;27.69;42.95;99067.34;4962062;28;20034;-92
2022/06/24 19:15:15;;;;;;;11.25;4.55;;;;;;;27.67;43.00;99074.66;4963518;28;20023;-90
2022/06/24 19:20:09;;;;;;;7.45;3.05;;;;;;;27.65;42.43;99076.66;4976611;28;20044;-90
2022/06/24 19:22:37;;;;;;;8.55;3.30;;;;;;;27.64;42.68;99074.97;4947971;29;20382;-91
2022/06/24 19:25:03;;;;;;;6.35;2.88;;;;;;;27.63;42.79;99073.25;4961776;29;20066;-90
2022/06/24 19:27:29;;;;;;;6.45;2.38;;;;;;;27.60;42.42;99080.63;4962192;28;20047;-90
2022/06/24 19:29:55;;;;;;;4.07;1.95;;;;;;;27.58;42.25;99082.63;4944488;29;20011;-91
2022/06/24 19:32:23;;;;;;;5.10;2.40;;;;;;;27.57;42.22;99080.03;4960211;28;20106;-90
2022/06/24 19:34:51;;;;;;;5.80;2.13;;;;;;;27.55;42.30;99077.50;4957863;23;20039;-91
2022/06/24 19:48:56;;;;;;;3.63;1.80;;;;;;;27.51;42.81;99091.34;5239322;23;20265;-90
2022/06/24 19:51:25;;;;;;;4.68;1.90;;;;;;;27.48;42.58;99089.78;4939484;29;20032;-93
2022/06/24 19:53:52;;;;;;;3.85;1.50;;;;;;;27.49;42.78;99094.16;5053792;23;20051;-91
2022/06/24 19:56:19;;;;;;;4.47;1.60;;;;;;;27.47;42.68;99096.97;4940404;29;20063;-93
2022/06/24 19:58:47;;;;;;;3.97;1.55;;;;;;;27.48;43.02;99103.19;4920758;29;20177;-88
2022/06/24 20:18:04;;;;;;;3.58;1.40;;;;;;;27.45;43.52;99125.75;4940455;28;20026;-90
2022/06/24 20:21:16;;;;;;;3.38;1.38;;;;;;;27.45;44.06;99130.28;4939609;28;20020;-90
2022/06/24 20:23:46;;;;;;;4.65;1.67;;;;;;;27.43;43.66;99125.06;4919062;29;20036;-86
2022/06/24 20:26:11;;;;;;;3.05;1.42;;;;;;;27.42;43.96;99123.38;4905350;29;20046;-85
2022/06/24 20:28:40;;;;;;;3.28;1.60;;;;;;;27.44;43.90;99133.94;4913381;29;20048;-87
2022/06/24 20:31:07;;;;;;;2.25;1.40;;;;;;;27.41;43.83;99129.72;4916202;29;20606;-86
2022/06/24 20:33:37;;;;;;;4.15;1.90;;;;;;;27.40;43.70;99129.88;4913031;29;20052;-85
2022/06/24 20:36:06;;;;;;;3.30;1.73;;;;;;;27.39;44.15;99136.19;4935420;28;20056;-88
2022/06/24 20:41:55;;;;;;;4.32;1.92;;;;;;;27.39;44.10;99131.69;4937639;28;20047;-87
2022/06/24 20:44:33;;;;;;;4.50;2.10;;;;;;;27.38;43.96;99131.84;4923725;28;20020;-91
2022/06/24 20:46:59;;;;;;;4.18;2.00;;;;;;;27.38;44.26;99134.50;4922046;29;20072;-88
2022/06/24 20:49:27;;;;;;;2.97;1.77;;;;;;;27.37;43.84;99139.03;4926214;29;20044;-88